Webcam

2019/10/14 11:20 EBBR 141120Z 13006KT 100V160 CAVOK 20/15 Q1009 NOSIG

Webcam

--- Refresh now ---